Time;durP1;ratioP1;P1;durP2;ratioP2;P2;SDS_P1;SDS_P2;PMS_P1;PMS_P2;Temp;Humidity;BMP_temperature;BMP_pressure;BME280_temperature;BME280_humidity;BME280_pressure;Samples;Min_cycle;Max_cycle;Signal;HPM_P1;HPM_P2
2022/10/01 00:00:09;;;;;;;2.90;2.70;;;21.40;99.90;;;;;;5143967;27;20485;-68
2022/10/01 00:02:41;;;;;;;3.97;3.67;;;21.40;99.90;;;;;;5143400;27;21237;-68
2022/10/01 00:05:11;;;;;;;3.60;3.10;;;21.40;99.90;;;;;;5143605;27;20473;-68
2022/10/01 00:07:45;;;;;;;3.90;3.60;;;21.40;99.90;;;;;;5143797;27;20493;-67
2022/10/01 00:10:17;;;;;;;5.20;3.20;;;21.30;99.90;;;;;;5142798;27;20485;-67
2022/10/01 00:12:49;;;;;;;4.70;3.03;;;21.30;99.90;;;;;;5143110;27;21002;-67
2022/10/01 00:15:20;;;;;;;3.40;3.10;;;21.40;99.90;;;;;;5133773;28;20458;-67
2022/10/01 00:17:51;;;;;;;3.50;3.20;;;21.30;99.90;;;;;;5135660;28;20430;-66
2022/10/01 00:20:22;;;;;;;4.33;3.90;;;21.20;99.90;;;;;;5114998;28;20440;-66
2022/10/01 00:22:54;;;;;;;3.87;3.57;;;21.20;99.90;;;;;;5119656;28;20473;-67
2022/10/01 00:25:25;;;;;;;4.20;3.80;;;21.20;99.90;;;;;;5130671;27;20458;-66
2022/10/01 00:27:56;;;;;;;4.40;3.73;;;21.20;99.90;;;;;;5141917;27;20484;-67
2022/10/01 00:30:27;;;;;;;4.73;4.07;;;21.20;99.90;;;;;;5140395;27;20590;-67
2022/10/01 00:32:58;;;;;;;5.33;3.40;;;21.20;99.90;;;;;;5142743;27;20456;-67
2022/10/01 00:35:29;;;;;;;4.50;3.90;;;21.20;99.90;;;;;;5127518;27;20449;-67
2022/10/01 00:38:02;;;;;;;4.40;4.00;;;21.20;99.90;;;;;;5124685;27;20466;-67
2022/10/01 00:40:33;;;;;;;4.47;4.07;;;21.10;99.90;;;;;;5133107;27;20474;-67
2022/10/01 00:43:18;;;;;;;4.00;3.70;;;21.00;99.90;;;;;;5136705;27;20520;-67
2022/10/01 00:45:49;;;;;;;5.60;4.20;;;21.10;99.90;;;;;;5147136;27;20418;-67
2022/10/01 00:48:21;;;;;;;3.40;3.10;;;21.00;99.90;;;;;;5147044;27;20423;-66
2022/10/01 00:50:52;;;;;;;4.40;4.00;;;21.00;99.90;;;;;;5145681;27;20520;-65
2022/10/01 00:53:26;;;;;;;4.23;3.87;;;20.90;99.90;;;;;;5140492;27;20453;-65
2022/10/01 00:55:58;;;;;;;4.70;4.20;;;21.00;99.90;;;;;;5130894;27;20452;-65
2022/10/01 00:58:29;;;;;;;4.20;3.80;;;20.90;99.90;;;;;;5117241;27;20475;-65
2022/10/01 01:01:00;;;;;;;3.77;3.10;;;20.80;99.90;;;;;;5142653;27;20457;-65
2022/10/01 01:03:31;;;;;;;4.17;3.77;;;20.80;99.90;;;;;;5146099;27;20427;-65
2022/10/01 01:06:02;;;;;;;3.87;3.47;;;20.70;99.90;;;;;;5146101;27;20464;-65
2022/10/01 01:08:34;;;;;;;4.53;3.97;;;20.60;99.90;;;;;;5122894;27;20436;-67
2022/10/01 01:11:14;;;;;;;4.53;4.00;;;20.50;99.90;;;;;;5129049;27;20467;-66
2022/10/01 01:13:53;;;;;;;4.53;3.87;;;20.50;99.90;;;;;;5127753;27;20453;-68
2022/10/01 01:16:31;;;;;;;4.97;4.43;;;20.40;99.90;;;;;;5125709;27;20450;-64
2022/10/01 01:19:09;;;;;;;4.80;4.40;;;20.20;99.90;;;;;;5136300;27;20536;-67
2022/10/01 01:21:44;;;;;;;6.50;4.77;;;20.20;99.90;;;;;;5126774;27;20451;-66
2022/10/01 01:24:30;;;;;;;4.67;4.27;;;20.20;99.90;;;;;;5144176;27;20453;-65
2022/10/01 01:27:15;;;;;;;5.30;4.80;;;20.10;99.90;;;;;;5146087;27;20514;-66
2022/10/01 01:29:52;;;;;;;4.40;4.00;;;20.20;99.90;;;;;;5135786;27;20456;-64
2022/10/01 01:32:27;;;;;;;4.73;4.10;;;20.10;99.90;;;;;;5141814;27;20460;-65
2022/10/01 01:35:01;;;;;;;5.27;4.77;;;20.00;99.90;;;;;;5139611;27;20448;-66
2022/10/01 01:37:39;;;;;;;5.43;4.93;;;19.90;99.90;;;;;;5133911;27;20436;-64
2022/10/01 01:40:13;;;;;;;4.53;4.13;;;19.80;99.90;;;;;;5126081;27;20491;-66
2022/10/01 01:42:47;;;;;;;6.20;5.60;;;19.70;99.90;;;;;;5136634;27;20970;-66
2022/10/01 01:45:24;;;;;;;5.07;4.57;;;19.60;99.90;;;;;;5115410;27;20521;-65
2022/10/01 01:47:56;;;;;;;4.67;4.27;;;19.50;99.90;;;;;;5133040;27;20814;-65
2022/10/01 01:50:30;;;;;;;4.53;4.13;;;19.40;99.90;;;;;;5138412;27;20477;-64
2022/10/01 01:53:01;;;;;;;4.70;4.20;;;19.30;99.90;;;;;;5135980;27;20461;-63
2022/10/01 01:55:33;;;;;;;4.33;3.87;;;19.20;99.90;;;;;;5141540;27;20439;-66
2022/10/01 01:58:05;;;;;;;4.47;4.07;;;19.10;99.90;;;;;;5127367;27;20469;-66
2022/10/01 02:00:38;;;;;;;5.30;4.80;;;19.00;99.90;;;;;;5127786;27;20462;-65
2022/10/01 02:03:10;;;;;;;5.43;4.83;;;19.00;99.90;;;;;;5136257;27;20801;-65
2022/10/01 02:05:49;;;;;;;5.03;4.20;;;18.90;99.90;;;;;;5142270;27;20569;-65
2022/10/01 02:08:32;;;;;;;4.80;4.10;;;18.80;99.90;;;;;;5131830;27;20417;-64
2022/10/01 02:11:17;;;;;;;5.03;4.63;;;18.80;99.90;;;;;;5116661;27;20501;-65
2022/10/01 02:13:56;;;;;;;5.00;4.30;;;18.70;99.90;;;;;;5135978;27;20517;-66
2022/10/01 02:16:33;;;;;;;5.23;4.73;;;18.60;99.90;;;;;;5139011;27;20439;-65
2022/10/01 02:19:10;;;;;;;4.67;4.27;;;18.50;99.90;;;;;;5144868;27;20424;-66
2022/10/01 02:21:44;;;;;;;5.20;4.70;;;18.50;99.90;;;;;;5126257;27;20473;-65
2022/10/01 02:24:23;;;;;;;4.80;4.30;;;18.40;99.90;;;;;;5125270;27;20467;-64
2022/10/01 02:26:56;;;;;;;5.60;5.00;;;18.40;99.90;;;;;;5141671;27;20436;-65
2022/10/01 02:29:28;;;;;;;4.77;4.30;;;18.40;99.90;;;;;;5138171;27;20495;-65
2022/10/01 02:32:02;;;;;;;4.53;4.13;;;18.30;99.90;;;;;;5134153;27;20468;-64
2022/10/01 02:34:33;;;;;;;4.60;4.07;;;18.30;99.90;;;;;;5130338;27;20454;-66
2022/10/01 02:37:07;;;;;;;4.83;4.37;;;18.20;99.90;;;;;;5132103;27;20536;-65
2022/10/01 02:39:40;;;;;;;5.40;4.13;;;18.20;99.90;;;;;;5129152;27;20450;-66
2022/10/01 02:42:15;;;;;;;4.10;3.70;;;18.10;99.90;;;;;;5120690;27;20485;-66
2022/10/01 02:44:47;;;;;;;4.17;3.77;;;18.00;99.90;;;;;;5112493;28;20464;-66
2022/10/01 02:47:23;;;;;;;5.23;4.73;;;18.00;99.90;;;;;;5123138;27;20443;-65
2022/10/01 02:49:55;;;;;;;5.07;4.23;;;18.00;99.90;;;;;;5118517;27;20454;-65
2022/10/01 02:52:32;;;;;;;4.43;3.80;;;18.00;99.90;;;;;;5107601;27;20481;-66
2022/10/01 02:55:07;;;;;;;3.97;3.67;;;18.00;99.90;;;;;;5134948;27;20440;-66
2022/10/01 02:57:37;;;;;;;4.27;3.70;;;18.10;99.90;;;;;;5137987;27;20434;-65
2022/10/01 03:00:12;;;;;;;4.13;3.73;;;18.00;99.90;;;;;;5117260;27;20460;-66
2022/10/01 03:02:46;;;;;;;4.10;3.80;;;18.10;99.90;;;;;;5132510;27;20456;-66
2022/10/01 03:05:17;;;;;;;4.77;4.37;;;18.10;99.90;;;;;;5123247;27;20973;-65
2022/10/01 03:07:49;;;;;;;4.00;3.50;;;18.10;99.90;;;;;;5110142;27;20486;-66
2022/10/01 03:10:20;;;;;;;4.43;3.43;;;18.10;99.90;;;;;;5121971;27;20457;-64
2022/10/01 03:12:50;;;;;;;3.37;3.03;;;18.10;99.90;;;;;;5120673;27;20991;-64
2022/10/01 03:15:21;;;;;;;4.87;3.90;;;18.00;99.90;;;;;;5130696;27;21000;-64
2022/10/01 03:17:54;;;;;;;3.50;3.20;;;17.90;99.90;;;;;;5127995;27;20431;-66
2022/10/01 03:20:25;;;;;;;5.03;3.70;;;17.90;99.90;;;;;;5123775;27;20565;-66
2022/10/01 03:22:56;;;;;;;4.87;3.80;;;17.90;99.90;;;;;;5127257;27;20457;-65
2022/10/01 03:25:27;;;;;;;5.17;4.50;;;17.80;99.90;;;;;;5124822;27;20425;-64
2022/10/01 03:27:58;;;;;;;4.97;4.47;;;17.80;99.90;;;;;;5119652;27;21055;-65
2022/10/01 03:30:29;;;;;;;4.67;4.17;;;17.80;99.90;;;;;;5118381;28;20436;-65
2022/10/01 03:33:01;;;;;;;4.03;3.50;;;17.80;99.90;;;;;;5123077;28;20488;-65
2022/10/01 03:35:33;;;;;;;4.67;3.83;;;17.70;99.90;;;;;;5124264;28;20447;-65
2022/10/01 03:38:03;;;;;;;3.77;3.47;;;17.70;99.90;;;;;;5126500;28;20490;-65
2022/10/01 03:40:37;;;;;;;4.87;4.17;;;17.60;99.90;;;;;;5119162;28;20522;-65
2022/10/01 03:43:08;;;;;;;4.57;3.87;;;17.60;99.90;;;;;;5143989;27;20488;-64
2022/10/01 03:45:39;;;;;;;4.97;4.50;;;17.50;99.90;;;;;;5140752;27;20428;-64
2022/10/01 03:48:12;;;;;;;4.47;4.07;;;17.50;99.90;;;;;;5120446;28;20857;-64
2022/10/01 03:50:42;;;;;;;4.23;3.83;;;17.50;99.90;;;;;;5123176;27;20432;-64
2022/10/01 03:53:13;;;;;;;4.60;3.70;;;17.50;99.90;;;;;;5125018;28;20482;-64
2022/10/01 03:55:44;;;;;;;6.63;4.90;;;17.50;99.90;;;;;;5132195;28;20437;-64
2022/10/01 03:58:15;;;;;;;4.53;4.13;;;17.40;99.90;;;;;;5126242;28;20423;-64
2022/10/01 04:00:46;;;;;;;4.83;4.33;;;17.40;99.90;;;;;;5145708;27;20482;-65
2022/10/01 04:03:19;;;;;;;5.50;3.80;;;17.40;99.90;;;;;;5141807;27;20493;-64
2022/10/01 04:05:50;;;;;;;5.27;4.60;;;17.40;99.90;;;;;;5115325;27;20563;-64
2022/10/01 04:08:21;;;;;;;5.50;4.30;;;17.30;99.90;;;;;;5147889;27;20445;-64
2022/10/01 04:10:53;;;;;;;4.90;4.50;;;17.30;99.90;;;;;;5147521;27;20447;-63
2022/10/01 04:13:24;;;;;;;6.60;5.07;;;17.20;99.90;;;;;;5143324;27;20483;-65
2022/10/01 04:15:55;;;;;;;4.93;4.40;;;17.20;99.90;;;;;;5136431;27;20424;-64
2022/10/01 04:18:28;;;;;;;6.27;4.77;;;17.20;99.90;;;;;;5137458;27;20540;-64
2022/10/01 04:20:59;;;;;;;5.20;4.30;;;17.10;99.90;;;;;;5142761;27;20439;-64
2022/10/01 04:23:30;;;;;;;6.10;5.50;;;17.10;99.90;;;;;;5136837;27;20445;-65
2022/10/01 04:26:02;;;;;;;5.83;4.50;;;17.20;99.90;;;;;;5146718;27;20449;-64
2022/10/01 04:28:33;;;;;;;5.20;4.23;;;17.20;99.90;;;;;;5140349;27;20475;-64
2022/10/01 04:33:54;;;;;;;5.00;4.00;;;17.10;99.90;;;;;;5126699;27;20525;-64
2022/10/01 04:36:25;;;;;;;5.07;4.40;;;17.10;99.90;;;;;;5132278;27;20441;-64
2022/10/01 04:38:57;;;;;;;4.87;4.10;;;17.10;99.90;;;;;;5144119;27;20452;-64
2022/10/01 04:41:32;;;;;;;4.63;4.23;;;17.20;99.90;;;;;;5146524;27;20440;-64
2022/10/01 04:44:03;;;;;;;4.77;4.30;;;17.20;99.90;;;;;;5147269;27;20408;-64
2022/10/01 04:46:35;;;;;;;5.33;4.53;;;17.10;99.90;;;;;;5146612;27;20444;-64
2022/10/01 04:49:07;;;;;;;5.77;4.87;;;17.10;99.90;;;;;;5147370;27;20492;-64
2022/10/01 04:51:38;;;;;;;5.27;4.10;;;17.10;99.90;;;;;;5140416;27;20446;-64
2022/10/01 04:54:09;;;;;;;4.73;4.27;;;17.00;99.90;;;;;;5146704;27;20444;-64
2022/10/01 04:56:40;;;;;;;4.10;3.50;;;17.00;99.90;;;;;;5114176;27;20476;-63
2022/10/01 04:59:11;;;;;;;5.60;4.57;;;17.00;99.90;;;;;;5147753;27;20456;-63
2022/10/01 05:01:42;;;;;;;4.90;4.30;;;17.00;99.90;;;;;;5146773;27;20448;-63
2022/10/01 05:04:14;;;;;;;4.00;3.63;;;17.10;99.90;;;;;;5145258;27;20486;-63
2022/10/01 05:06:45;;;;;;;6.53;3.60;;;17.00;99.90;;;;;;5126008;27;20439;-63
2022/10/01 05:09:16;;;;;;;5.07;3.80;;;16.90;99.90;;;;;;5142820;27;20465;-64
2022/10/01 05:11:47;;;;;;;4.67;4.17;;;16.80;99.90;;;;;;5131790;27;20431;-63
2022/10/01 05:14:18;;;;;;;4.83;4.33;;;16.70;99.90;;;;;;5139603;27;20497;-64
2022/10/01 05:16:49;;;;;;;5.23;4.10;;;16.70;99.90;;;;;;5146478;27;20452;-64
2022/10/01 05:19:22;;;;;;;6.57;4.33;;;16.70;99.90;;;;;;5146626;27;20955;-63
2022/10/01 05:21:56;;;;;;;4.20;3.80;;;16.60;99.90;;;;;;5146157;27;20470;-63
2022/10/01 05:24:27;;;;;;;5.07;4.20;;;16.60;99.90;;;;;;5114977;27;20449;-64
2022/10/01 05:26:58;;;;;;;4.90;3.73;;;16.50;99.90;;;;;;5145915;27;20420;-64
2022/10/01 05:29:29;;;;;;;4.10;3.70;;;16.50;99.90;;;;;;5132582;27;21018;-63
2022/10/01 05:32:00;;;;;;;5.20;4.03;;;16.50;99.90;;;;;;5135574;27;20445;-64
2022/10/01 05:34:32;;;;;;;5.03;4.30;;;16.40;99.90;;;;;;5143349;27;20478;-63
2022/10/01 05:37:04;;;;;;;5.23;4.10;;;16.40;99.90;;;;;;5119376;27;20516;-64
2022/10/01 05:39:34;;;;;;;4.90;4.27;;;16.40;99.90;;;;;;5132452;27;20860;-64
2022/10/01 05:42:05;;;;;;;4.20;3.60;;;16.30;99.90;;;;;;5136697;27;20558;-64
2022/10/01 05:44:39;;;;;;;5.73;4.47;;;16.30;99.90;;;;;;5139875;27;20440;-63
2022/10/01 05:47:10;;;;;;;4.70;4.27;;;16.20;99.90;;;;;;5115578;27;20492;-64
2022/10/01 05:49:43;;;;;;;5.93;4.13;;;16.20;99.90;;;;;;5124096;27;20431;-63
2022/10/01 05:52:15;;;;;;;4.10;3.70;;;16.30;99.90;;;;;;5137249;27;20524;-63
2022/10/01 05:54:46;;;;;;;5.10;4.17;;;16.40;99.90;;;;;;5144663;27;20437;-64
2022/10/01 05:57:17;;;;;;;7.00;4.33;;;16.40;99.90;;;;;;5137622;27;20497;-63
2022/10/01 05:59:47;;;;;;;5.97;4.60;;;16.40;99.90;;;;;;5145941;27;20445;-63
2022/10/01 06:02:18;;;;;;;5.03;4.17;;;16.50;99.90;;;;;;5126493;27;20428;-64
2022/10/01 06:04:51;;;;;;;5.20;4.23;;;16.40;99.90;;;;;;5124005;27;20551;-64
2022/10/01 06:07:21;;;;;;;4.90;4.13;;;16.30;99.90;;;;;;5134905;27;20481;-64
2022/10/01 06:09:52;;;;;;;4.50;4.10;;;16.20;99.90;;;;;;5134224;27;20457;-64
2022/10/01 06:12:23;;;;;;;4.17;3.77;;;16.10;99.90;;;;;;5127852;27;20454;-63
2022/10/01 06:14:53;;;;;;;4.50;3.80;;;16.00;99.90;;;;;;5128201;27;20580;-64
2022/10/01 06:17:24;;;;;;;5.40;4.27;;;16.00;99.90;;;;;;5138966;27;20518;-63
2022/10/01 06:19:57;;;;;;;3.93;3.30;;;15.90;99.90;;;;;;5134891;27;20486;-64
2022/10/01 06:22:27;;;;;;;4.97;4.07;;;15.90;99.90;;;;;;5119491;27;20437;-64
2022/10/01 06:24:58;;;;;;;5.07;4.03;;;15.80;99.90;;;;;;5120150;27;20428;-64
2022/10/01 06:27:29;;;;;;;5.13;4.17;;;15.80;99.90;;;;;;5135849;27;20448;-63
2022/10/01 06:30:00;;;;;;;4.30;3.63;;;15.70;99.90;;;;;;5121418;27;20477;-63
2022/10/01 06:32:30;;;;;;;4.13;3.50;;;15.70;99.90;;;;;;5132662;27;20465;-64
2022/10/01 06:35:06;;;;;;;3.83;3.47;;;15.70;99.90;;;;;;5119472;27;20995;-63
2022/10/01 06:37:38;;;;;;;6.27;3.93;;;15.60;99.90;;;;;;5133893;27;20435;-64
2022/10/01 06:40:10;;;;;;;5.57;4.10;;;15.50;99.90;;;;;;5133891;27;20458;-64
2022/10/01 06:42:47;;;;;;;4.47;4.10;;;15.50;99.90;;;;;;5123953;27;20510;-63
2022/10/01 06:45:22;;;;;;;4.40;3.60;;;15.50;99.90;;;;;;5121475;27;20780;-64
2022/10/01 06:47:55;;;;;;;4.70;4.03;;;15.40;99.90;;;;;;5140403;27;20464;-64
2022/10/01 06:50:28;;;;;;;6.80;4.50;;;15.40;99.90;;;;;;5142813;27;20464;-64
2022/10/01 06:52:59;;;;;;;4.07;3.67;;;15.40;99.90;;;;;;5142635;27;20472;-64
2022/10/01 06:55:31;;;;;;;4.47;3.70;;;15.30;99.90;;;;;;5128816;27;20461;-64
2022/10/01 06:58:03;;;;;;;4.83;3.87;;;15.30;99.90;;;;;;5136317;27;20483;-64
2022/10/01 07:00:37;;;;;;;5.63;4.57;;;15.20;99.90;;;;;;5136541;27;20457;-64
2022/10/01 07:03:10;;;;;;;4.93;4.20;;;15.20;99.90;;;;;;5133023;27;20464;-66
2022/10/01 07:05:42;;;;;;;6.07;4.53;;;15.20;99.90;;;;;;5121105;27;20481;-63
2022/10/01 07:08:13;;;;;;;6.27;4.27;;;15.20;99.90;;;;;;5130555;27;20472;-64
2022/10/01 07:10:44;;;;;;;5.37;4.03;;;15.20;99.90;;;;;;5127845;27;20489;-64
2022/10/01 07:13:16;;;;;;;6.33;4.40;;;15.10;99.90;;;;;;5114947;27;20513;-62
2022/10/01 07:15:47;;;;;;;5.27;4.77;;;15.10;99.90;;;;;;5136078;27;20453;-63
2022/10/01 07:18:18;;;;;;;4.00;3.50;;;15.10;99.90;;;;;;5129111;27;21016;-63
2022/10/01 07:20:50;;;;;;;5.43;4.60;;;15.00;99.90;;;;;;5130369;27;20513;-63
2022/10/01 07:23:23;;;;;;;4.87;4.37;;;14.90;99.90;;;;;;5127106;27;20465;-64
2022/10/01 07:25:54;;;;;;;5.70;4.57;;;14.90;99.90;;;;;;5137497;27;20509;-63
2022/10/01 07:28:25;;;;;;;5.83;4.17;;;14.90;99.90;;;;;;5124326;27;20475;-63
2022/10/01 07:31:01;;;;;;;5.83;4.53;;;14.80;99.90;;;;;;5126170;28;20476;-63
2022/10/01 07:33:32;;;;;;;7.33;4.80;;;14.90;99.90;;;;;;5130979;27;20576;-63
2022/10/01 07:36:06;;;;;;;6.07;4.50;;;14.90;99.90;;;;;;5112042;28;20511;-63
2022/10/01 07:38:37;;;;;;;5.57;4.83;;;14.80;99.90;;;;;;5130684;28;20462;-64
2022/10/01 07:41:08;;;;;;;6.93;4.80;;;14.80;99.90;;;;;;5122495;28;20487;-64
2022/10/01 07:43:41;;;;;;;5.73;4.73;;;14.80;99.90;;;;;;5133632;28;20453;-64
2022/10/01 07:46:11;;;;;;;5.80;4.97;;;14.70;99.90;;;;;;5117775;27;20458;-63
2022/10/01 07:48:45;;;;;;;6.30;5.30;;;14.80;99.90;;;;;;5126636;28;20493;-64
2022/10/01 07:51:17;;;;;;;4.43;4.00;;;14.70;99.90;;;;;;5140917;28;20500;-64
2022/10/01 07:53:49;;;;;;;4.63;4.20;;;14.70;99.90;;;;;;5136497;27;20488;-64
2022/10/01 07:56:20;;;;;;;5.60;4.80;;;14.60;99.90;;;;;;5134742;27;20458;-64
2022/10/01 07:58:54;;;;;;;4.77;3.80;;;14.60;99.90;;;;;;5144033;27;20445;-63
2022/10/01 08:01:25;;;;;;;5.60;4.57;;;14.60;99.90;;;;;;5138290;27;20456;-64
2022/10/01 08:03:56;;;;;;;5.80;4.30;;;14.60;99.90;;;;;;5127153;28;20465;-64
2022/10/01 08:06:28;;;;;;;6.13;5.23;;;14.50;99.90;;;;;;5128640;27;20458;-63
2022/10/01 08:08:59;;;;;;;5.47;4.67;;;14.40;99.90;;;;;;5138216;28;20482;-64
2022/10/01 08:11:30;;;;;;;4.93;4.40;;;14.40;99.90;;;;;;5116652;27;20458;-64
2022/10/01 08:14:02;;;;;;;6.07;5.47;;;14.40;99.90;;;;;;5115428;28;20485;-64
2022/10/01 08:16:33;;;;;;;6.37;4.90;;;14.40;99.90;;;;;;5137452;28;20595;-63
2022/10/01 08:19:04;;;;;;;5.10;4.60;;;14.40;99.90;;;;;;5139559;28;20545;-64
2022/10/01 08:21:36;;;;;;;7.53;4.93;;;14.50;99.90;;;;;;5139140;27;20445;-64
2022/10/01 08:24:07;;;;;;;6.03;4.60;;;14.40;99.90;;;;;;5131912;27;20547;-64
2022/10/01 08:26:38;;;;;;;5.50;3.90;;;14.40;99.90;;;;;;5125133;28;20449;-63
2022/10/01 08:29:09;;;;;;;5.20;4.27;;;14.30;99.90;;;;;;5129194;28;21251;-64
2022/10/01 08:31:45;;;;;;;6.40;4.90;;;14.30;99.90;;;;;;5129292;28;21013;-64
2022/10/01 08:34:16;;;;;;;6.33;5.10;;;14.30;99.90;;;;;;5111184;28;20494;-63
2022/10/01 08:36:51;;;;;;;5.80;4.90;;;14.30;99.90;;;;;;5105571;28;20470;-63
2022/10/01 08:39:22;;;;;;;5.57;4.57;;;14.20;99.90;;;;;;5109695;28;20520;-63
2022/10/01 08:42:02;;;;;;;6.27;4.40;;;14.20;99.90;;;;;;5112253;28;20457;-62
2022/10/01 08:44:40;;;;;;;5.60;4.87;;;14.20;99.90;;;;;;5127820;28;20453;-63
2022/10/01 08:47:17;;;;;;;6.07;4.90;;;14.10;99.90;;;;;;5119567;27;20458;-63
2022/10/01 08:49:52;;;;;;;6.50;4.70;;;14.10;99.90;;;;;;5137173;27;20448;-63
2022/10/01 08:52:26;;;;;;;6.33;5.73;;;14.10;99.90;;;;;;5145820;27;20474;-63
2022/10/01 08:54:59;;;;;;;7.27;6.23;;;14.00;99.90;;;;;;5142224;27;20487;-63
2022/10/01 08:57:40;;;;;;;9.07;5.30;;;14.00;99.90;;;;;;5130116;27;20467;-64
2022/10/01 09:00:15;;;;;;;6.30;5.27;;;14.10;99.90;;;;;;5129111;27;20467;-64
2022/10/01 09:02:47;;;;;;;5.70;4.50;;;14.00;99.90;;;;;;5132628;27;20461;-63
2022/10/01 09:05:24;;;;;;;6.63;5.40;;;14.00;99.90;;;;;;5131298;27;20478;-63
2022/10/01 09:08:05;;;;;;;6.93;5.50;;;14.00;99.90;;;;;;5134791;27;20472;-63
2022/10/01 09:10:45;;;;;;;6.80;5.40;;;14.00;99.90;;;;;;5134265;27;20465;-64
2022/10/01 09:13:46;;;;;;;8.60;6.00;;;14.00;99.90;;;;;;5132530;27;20465;-63
2022/10/01 09:16:30;;;;;;;6.60;5.90;;;14.00;99.90;;;;;;5134435;27;20470;-62
2022/10/01 09:19:14;;;;;;;6.23;5.23;;;14.00;99.90;;;;;;5135821;27;20471;-63
2022/10/01 09:21:56;;;;;;;7.10;5.20;;;14.00;99.90;;;;;;5114065;27;20449;-63
2022/10/01 09:24:44;;;;;;;8.50;4.67;;;14.00;99.90;;;;;;5143608;27;20464;-63
2022/10/01 09:27:17;;;;;;;6.87;5.57;;;13.90;99.90;;;;;;5122356;27;20451;-65
2022/10/01 09:29:52;;;;;;;8.50;5.87;;;13.90;99.90;;;;;;5116130;27;20452;-65
2022/10/01 09:32:27;;;;;;;5.37;4.27;;;13.90;99.90;;;;;;5133113;27;20453;-65
2022/10/01 09:35:04;;;;;;;6.63;5.30;;;13.90;99.90;;;;;;5106239;27;20842;-65
2022/10/01 09:37:43;;;;;;;7.80;5.40;;;13.90;99.90;;;;;;5118267;27;20469;-65
2022/10/01 09:40:22;;;;;;;6.20;4.87;;;13.90;99.90;;;;;;5134759;27;20462;-65
2022/10/01 09:42:53;;;;;;;7.37;5.93;;;13.80;99.90;;;;;;5131855;27;20959;-65
2022/10/01 09:45:25;;;;;;;7.80;5.63;;;13.90;99.90;;;;;;5137243;27;20452;-64
2022/10/01 09:48:03;;;;;;;8.27;6.10;;;13.80;99.90;;;;;;5135896;27;20468;-64
2022/10/01 09:50:41;;;;;;;6.20;5.17;;;13.80;99.90;;;;;;5141170;27;20461;-65
2022/10/01 09:53:18;;;;;;;7.00;6.20;;;13.80;99.90;;;;;;5133062;27;20936;-64
2022/10/01 09:55:55;;;;;;;7.30;5.70;;;13.80;99.90;;;;;;5138894;27;20488;-63
2022/10/01 09:58:28;;;;;;;7.20;5.50;;;13.80;99.90;;;;;;5121001;27;20466;-63
2022/10/01 10:01:00;;;;;;;6.27;5.67;;;13.70;99.90;;;;;;5140830;27;20482;-62
2022/10/01 10:03:32;;;;;;;6.60;5.97;;;13.80;99.90;;;;;;5130710;27;20456;-63
2022/10/01 10:06:03;;;;;;;7.60;5.97;;;13.80;99.90;;;;;;5097599;28;20581;-63
2022/10/01 10:08:37;;;;;;;5.77;5.07;;;13.80;99.90;;;;;;5079097;28;20456;-63
2022/10/01 10:11:11;;;;;;;8.27;6.13;;;13.70;99.90;;;;;;5074588;28;20528;-63
2022/10/01 10:13:49;;;;;;;7.67;6.37;;;13.80;99.90;;;;;;5079000;28;20508;-63
2022/10/01 10:16:27;;;;;;;6.70;5.63;;;13.90;99.90;;;;;;5093592;28;20474;-63
2022/10/01 10:19:01;;;;;;;6.97;6.27;;;14.00;99.90;;;;;;5102860;28;20476;-63
2022/10/01 10:21:34;;;;;;;6.93;5.73;;;14.00;99.90;;;;;;5086356;28;20517;-63
2022/10/01 10:24:07;;;;;;;8.10;6.07;;;13.90;99.90;;;;;;5076808;28;20460;-64
2022/10/01 10:26:42;;;;;;;8.33;5.83;;;13.80;99.90;;;;;;5095684;28;20455;-64
2022/10/01 10:29:27;;;;;;;7.97;5.83;;;13.70;99.90;;;;;;5084816;28;20515;-63
2022/10/01 10:31:58;;;;;;;6.80;5.97;;;13.70;99.90;;;;;;5076940;28;20966;-64
2022/10/01 10:34:33;;;;;;;6.43;5.70;;;13.60;99.90;;;;;;5073793;28;20464;-63
2022/10/01 10:37:07;;;;;;;6.70;5.77;;;13.60;99.90;;;;;;5086581;28;20493;-63
2022/10/01 10:39:40;;;;;;;8.77;5.10;;;13.60;99.90;;;;;;5092103;28;20480;-63
2022/10/01 10:42:15;;;;;;;8.37;6.23;;;13.60;99.90;;;;;;5092084;28;20536;-64
2022/10/01 10:44:49;;;;;;;9.23;6.00;;;13.50;99.90;;;;;;5089622;28;20459;-64
2022/10/01 10:47:22;;;;;;;6.97;6.27;;;13.50;99.90;;;;;;5080206;28;20619;-63
2022/10/01 10:49:56;;;;;;;8.20;6.03;;;13.40;99.90;;;;;;5091210;28;20447;-63
2022/10/01 10:52:31;;;;;;;6.73;5.73;;;13.40;99.90;;;;;;5077096;28;20454;-63
2022/10/01 10:55:03;;;;;;;7.43;6.00;;;13.40;99.90;;;;;;5100244;28;20497;-64
2022/10/01 10:57:36;;;;;;;6.80;5.53;;;13.40;99.90;;;;;;5096369;28;20459;-63
2022/10/01 11:00:15;;;;;;;8.20;5.90;;;13.40;99.90;;;;;;5091293;28;20580;-64
2022/10/01 11:02:54;;;;;;;7.07;5.00;;;13.50;99.90;;;;;;5082877;28;20465;-63
2022/10/01 11:05:28;;;;;;;7.30;6.60;;;13.50;99.90;;;;;;5118285;27;20502;-64
2022/10/01 11:08:04;;;;;;;7.63;6.83;;;13.40;99.90;;;;;;5122525;27;21278;-63
2022/10/01 11:10:43;;;;;;;6.60;5.70;;;13.40;99.90;;;;;;5118529;28;21373;-64
2022/10/01 11:13:33;;;;;;;7.07;5.83;;;13.40;99.90;;;;;;5143274;27;20449;-63
2022/10/01 11:16:49;;;;;;;8.50;6.50;;;13.40;99.90;;;;;;5121275;27;20492;-64
2022/10/01 11:19:37;;;;;;;7.90;5.90;;;13.40;99.90;;;;;;5080418;28;20616;-64
2022/10/01 11:22:51;;;;;;;8.20;6.80;;;13.40;99.90;;;;;;5072772;28;20930;-64
2022/10/01 11:25:34;;;;;;;8.60;6.63;;;13.40;99.90;;;;;;5033999;28;20470;-64
2022/10/01 11:28:15;;;;;;;5.73;4.77;;;13.30;99.90;;;;;;5033945;28;21038;-64
2022/10/01 11:30:57;;;;;;;7.20;6.33;;;13.20;99.90;;;;;;5032248;28;20469;-64
2022/10/01 11:33:37;;;;;;;7.90;5.87;;;13.30;99.90;;;;;;5039403;28;20461;-64
2022/10/01 11:36:17;;;;;;;6.70;5.77;;;13.50;99.90;;;;;;5031430;28;20493;-64
2022/10/01 11:38:55;;;;;;;7.57;6.73;;;13.50;99.90;;;;;;5021075;28;20489;-64
2022/10/01 11:41:35;;;;;;;8.87;6.37;;;13.40;99.90;;;;;;5024199;28;20501;-64
2022/10/01 11:44:13;;;;;;;8.13;6.00;;;13.40;99.90;;;;;;5028793;28;20496;-64
2022/10/01 11:46:53;;;;;;;7.60;6.67;;;13.40;99.90;;;;;;5033103;28;20448;-64
2022/10/01 11:49:50;;;;;;;8.00;6.50;;;13.30;99.90;;;;;;5023339;28;20454;-64
2022/10/01 11:52:33;;;;;;;8.70;7.17;;;13.20;99.90;;;;;;5019854;28;20458;-64
2022/10/01 12:01:05;;;;;;;7.70;6.07;;;13.20;99.90;;;;;;5123210;27;20535;-64
2022/10/01 12:03:48;;;;;;;7.33;6.33;;;13.10;99.90;;;;;;5139788;27;20448;-63
2022/10/01 12:06:21;;;;;;;9.00;7.00;;;13.20;99.90;;;;;;5143728;27;20445;-64
2022/10/01 12:09:03;;;;;;;7.40;6.10;;;13.20;99.90;;;;;;5143829;27;20440;-65
2022/10/01 12:11:40;;;;;;;8.93;6.57;;;13.20;99.90;;;;;;5143600;27;20915;-65
2022/10/01 12:14:15;;;;;;;7.67;5.90;;;13.20;99.90;;;;;;5144162;27;20461;-63
2022/10/01 12:16:52;;;;;;;6.50;5.80;;;13.20;99.90;;;;;;5143372;27;20500;-65
2022/10/01 12:19:27;;;;;;;10.87;6.50;;;13.20;99.90;;;;;;5126074;27;20488;-64
2022/10/01 12:22:04;;;;;;;8.37;6.40;;;13.10;99.90;;;;;;5130781;27;20468;-64
2022/10/01 12:24:41;;;;;;;7.50;6.17;;;13.10;99.90;;;;;;5146427;27;20975;-64
2022/10/01 12:27:29;;;;;;;7.50;6.07;;;13.10;99.90;;;;;;5133991;27;20501;-64
2022/10/01 12:30:05;;;;;;;7.47;6.00;;;13.10;99.90;;;;;;5127352;27;20515;-64
2022/10/01 12:32:55;;;;;;;7.63;5.93;;;13.00;99.90;;;;;;5126462;27;20514;-64
2022/10/01 12:35:40;;;;;;;8.03;6.00;;;13.00;99.90;;;;;;5115389;27;20468;-64
2022/10/01 12:38:25;;;;;;;7.63;5.77;;;12.90;99.90;;;;;;5130680;27;20456;-64
2022/10/01 12:41:04;;;;;;;7.30;6.30;;;12.90;99.90;;;;;;5129097;27;20461;-64
2022/10/01 12:43:54;;;;;;;7.23;5.70;;;12.80;99.90;;;;;;5127212;27;20518;-64
2022/10/01 12:46:40;;;;;;;6.63;5.70;;;12.80;99.90;;;;;;5145460;27;20537;-64
2022/10/01 12:49:24;;;;;;;8.00;5.70;;;12.70;99.90;;;;;;5129325;27;20469;-63
2022/10/01 12:52:06;;;;;;;7.30;6.57;;;12.80;99.90;;;;;;5114309;27;20458;-64
2022/10/01 12:54:57;;;;;;;7.80;6.17;;;12.70;99.90;;;;;;5131295;27;20515;-64
2022/10/01 12:57:39;;;;;;;7.97;6.57;;;12.70;99.90;;;;;;5129127;27;20577;-64
2022/10/01 13:00:15;;;;;;;7.13;6.30;;;12.70;99.90;;;;;;5135963;27;20449;-64
2022/10/01 13:03:17;;;;;;;7.20;5.53;;;12.70;99.90;;;;;;5134543;27;21017;-64
2022/10/01 13:06:02;;;;;;;6.50;5.70;;;12.70;99.90;;;;;;5099399;27;20477;-64
2022/10/01 13:08:56;;;;;;;8.03;6.50;;;12.60;99.90;;;;;;5114609;27;20482;-64
2022/10/01 13:11:51;;;;;;;6.63;5.23;;;12.50;99.90;;;;;;5134757;27;20461;-64
2022/10/01 13:14:23;;;;;;;7.77;6.20;;;12.50;99.90;;;;;;5137927;27;20469;-64
2022/10/01 13:17:00;;;;;;;7.23;6.00;;;12.50;99.90;;;;;;5137699;27;20496;-64
2022/10/01 13:19:41;;;;;;;7.97;5.13;;;12.50;99.90;;;;;;5134528;27;20473;-64
2022/10/01 13:22:17;;;;;;;6.07;5.27;;;12.50;99.90;;;;;;5129491;27;20458;-64
2022/10/01 13:24:59;;;;;;;6.90;4.77;;;12.50;99.90;;;;;;5137744;27;20529;-64
2022/10/01 13:27:36;;;;;;;8.17;6.03;;;12.50;99.90;;;;;;5124123;27;20455;-64
2022/10/01 13:30:17;;;;;;;7.20;5.70;;;12.50;99.90;;;;;;5116651;27;20998;-64
2022/10/01 13:32:53;;;;;;;6.33;5.70;;;12.50;99.90;;;;;;5125923;27;20513;-64
2022/10/01 13:35:27;;;;;;;6.67;4.90;;;12.50;99.90;;;;;;5127146;27;20461;-64